Pagina principală
METAR-TAF:

METAR-TAF

Aeroporturi :

Griffith, Australia

Latitudine: 34-15-06S, longitudine: 146-04-00E, elevație: 134 m

Observații meteo curente

Raportul a fost făcut în urmă cu 1 oră și 20 de minute, la 09:00 UTC
Vânt 6 kt de la Est
Temperatură 11°C
Umiditate 82%
Presiune 1021 hPa
Vizibilitate de 10 km sau mai mult

METAR: YGTH 260900Z AUTO 09006KT 9999 // NCD 11/08 Q1021

Ora: 20:20 (10:20 UTC)


TAF: lipsă

Observații și prognoze meteo pentru peste 4.000 de aeroporturi (rapoarte METAR și TAF).

Stațiile disponibile sunt reprezentate pe hartă prin puncte galbene și roșii.

Țineți indicatorul mouse-ului pe punctul dorit pentru a vedea denumirea stației.

Apoi, faceți clic pentru a vedea observațiile și prognozele meteorologice.

Pentru a schimba harta: Pentru mărire, faceți clic pe butoanele verzi cu cruce neagră; pentru micșorare, pe butonul verde cu o liniuță; pentru hărți învecinate, pe săgețile verzi.


METAR-TAF: